sensor_id;sensor_type;location;lat;lon;timestamp;temperature;humidity
16964;DHT22;8598;50.508;10.436;2023-05-07T00:02:08;12.10;99.90
16964;DHT22;8598;50.508;10.436;2023-05-07T00:04:35;12.20;99.90
16964;DHT22;8598;50.508;10.436;2023-05-07T00:07:04;12.20;99.90
16964;DHT22;8598;50.508;10.436;2023-05-07T00:09:31;12.20;99.90
16964;DHT22;8598;50.508;10.436;2023-05-07T00:11:57;12.20;99.90
16964;DHT22;8598;50.508;10.436;2023-05-07T00:14:24;12.20;99.90
16964;DHT22;8598;50.508;10.436;2023-05-07T00:16:51;12.20;99.90
16964;DHT22;8598;50.508;10.436;2023-05-07T00:19:17;12.20;99.90
16964;DHT22;8598;50.508;10.436;2023-05-07T00:21:44;12.10;99.90
16964;DHT22;8598;50.508;10.436;2023-05-07T00:24:12;12.10;99.90
16964;DHT22;8598;50.508;10.436;2023-05-07T00:26:38;12.10;99.90
16964;DHT22;8598;50.508;10.436;2023-05-07T00:29:05;12.10;99.90
16964;DHT22;8598;50.508;10.436;2023-05-07T00:31:31;12.00;99.90
16964;DHT22;8598;50.508;10.436;2023-05-07T00:33:58;12.00;99.90
16964;DHT22;8598;50.508;10.436;2023-05-07T00:36:25;12.10;99.90
16964;DHT22;8598;50.508;10.436;2023-05-07T00:38:54;12.10;99.90
16964;DHT22;8598;50.508;10.436;2023-05-07T00:41:22;12.10;99.90
16964;DHT22;8598;50.508;10.436;2023-05-07T00:43:49;12.10;99.90
16964;DHT22;8598;50.508;10.436;2023-05-07T00:46:17;12.10;99.90
16964;DHT22;8598;50.508;10.436;2023-05-07T00:48:44;12.00;99.90
16964;DHT22;8598;50.508;10.436;2023-05-07T00:51:11;12.10;99.90
16964;DHT22;8598;50.508;10.436;2023-05-07T00:53:38;12.10;99.90
16964;DHT22;8598;50.508;10.436;2023-05-07T00:56:06;12.10;99.90
16964;DHT22;8598;50.508;10.436;2023-05-07T00:58:34;12.10;99.90
16964;DHT22;8598;50.508;10.436;2023-05-07T01:01:01;12.10;99.90
16964;DHT22;8598;50.508;10.436;2023-05-07T01:03:28;12.10;99.90
16964;DHT22;8598;50.508;10.436;2023-05-07T01:05:56;12.10;99.90
16964;DHT22;8598;50.508;10.436;2023-05-07T01:08:24;12.00;99.90
16964;DHT22;8598;50.508;10.436;2023-05-07T01:10:54;12.10;99.90
16964;DHT22;8598;50.508;10.436;2023-05-07T01:13:21;12.00;99.90
16964;DHT22;8598;50.508;10.436;2023-05-07T01:15:49;12.00;99.90
16964;DHT22;8598;50.508;10.436;2023-05-07T01:18:15;12.00;99.90
16964;DHT22;8598;50.508;10.436;2023-05-07T01:20:42;12.00;99.90
16964;DHT22;8598;50.508;10.436;2023-05-07T01:23:11;12.00;99.90
16964;DHT22;8598;50.508;10.436;2023-05-07T01:25:37;12.10;99.90
16964;DHT22;8598;50.508;10.436;2023-05-07T01:28:04;12.10;99.90
16964;DHT22;8598;50.508;10.436;2023-05-07T01:30:33;12.10;99.90
16964;DHT22;8598;50.508;10.436;2023-05-07T01:33:02;12.10;99.90
16964;DHT22;8598;50.508;10.436;2023-05-07T01:35:37;12.10;99.90
16964;DHT22;8598;50.508;10.436;2023-05-07T01:38:05;12.10;99.90
16964;DHT22;8598;50.508;10.436;2023-05-07T01:40:33;12.10;99.90
16964;DHT22;8598;50.508;10.436;2023-05-07T01:43:01;12.10;99.90
16964;DHT22;8598;50.508;10.436;2023-05-07T01:45:28;12.00;99.90
16964;DHT22;8598;50.508;10.436;2023-05-07T01:47:56;12.00;99.90
16964;DHT22;8598;50.508;10.436;2023-05-07T01:50:23;12.00;99.90
16964;DHT22;8598;50.508;10.436;2023-05-07T01:52:51;11.90;99.90
16964;DHT22;8598;50.508;10.436;2023-05-07T01:55:17;11.80;99.90
16964;DHT22;8598;50.508;10.436;2023-05-07T01:57:45;11.70;99.90
16964;DHT22;8598;50.508;10.436;2023-05-07T02:00:12;11.70;99.90
16964;DHT22;8598;50.508;10.436;2023-05-07T02:02:39;11.70;99.90
16964;DHT22;8598;50.508;10.436;2023-05-07T02:05:06;11.80;99.90
16964;DHT22;8598;50.508;10.436;2023-05-07T02:07:33;11.80;99.90
16964;DHT22;8598;50.508;10.436;2023-05-07T02:09:59;11.80;99.90
16964;DHT22;8598;50.508;10.436;2023-05-07T02:12:26;11.70;99.90
16964;DHT22;8598;50.508;10.436;2023-05-07T02:14:54;11.70;99.90
16964;DHT22;8598;50.508;10.436;2023-05-07T02:17:21;11.70;99.90
16964;DHT22;8598;50.508;10.436;2023-05-07T02:19:47;11.70;99.90
16964;DHT22;8598;50.508;10.436;2023-05-07T02:22:14;11.70;99.90
16964;DHT22;8598;50.508;10.436;2023-05-07T02:24:40;11.60;99.90
16964;DHT22;8598;50.508;10.436;2023-05-07T02:27:07;11.70;99.90
16964;DHT22;8598;50.508;10.436;2023-05-07T02:29:34;11.60;99.90
16964;DHT22;8598;50.508;10.436;2023-05-07T02:32:02;11.60;99.90
16964;DHT22;8598;50.508;10.436;2023-05-07T02:34:28;11.60;99.90
16964;DHT22;8598;50.508;10.436;2023-05-07T02:36:55;11.60;99.90
16964;DHT22;8598;50.508;10.436;2023-05-07T02:39:22;11.60;99.90
16964;DHT22;8598;50.508;10.436;2023-05-07T02:41:48;11.60;99.90
16964;DHT22;8598;50.508;10.436;2023-05-07T02:44:15;11.60;99.90
16964;DHT22;8598;50.508;10.436;2023-05-07T02:46:41;11.60;99.90
16964;DHT22;8598;50.508;10.436;2023-05-07T02:49:09;11.60;99.90
16964;DHT22;8598;50.508;10.436;2023-05-07T02:51:36;11.60;99.90
16964;DHT22;8598;50.508;10.436;2023-05-07T02:54:02;11.50;99.90
16964;DHT22;8598;50.508;10.436;2023-05-07T02:56:29;11.60;99.90
16964;DHT22;8598;50.508;10.436;2023-05-07T02:58:56;11.60;99.90
16964;DHT22;8598;50.508;10.436;2023-05-07T03:01:23;11.70;99.90
16964;DHT22;8598;50.508;10.436;2023-05-07T03:03:50;11.80;99.90
16964;DHT22;8598;50.508;10.436;2023-05-07T03:06:18;11.90;99.90
16964;DHT22;8598;50.508;10.436;2023-05-07T03:08:45;11.90;99.90
16964;DHT22;8598;50.508;10.436;2023-05-07T03:11:11;12.00;99.90
16964;DHT22;8598;50.508;10.436;2023-05-07T03:13:38;12.00;99.90
16964;DHT22;8598;50.508;10.436;2023-05-07T03:16:05;11.90;99.90
16964;DHT22;8598;50.508;10.436;2023-05-07T03:18:32;12.00;99.90
16964;DHT22;8598;50.508;10.436;2023-05-07T03:20:59;12.00;99.90
16964;DHT22;8598;50.508;10.436;2023-05-07T03:23:26;11.90;99.90
16964;DHT22;8598;50.508;10.436;2023-05-07T03:25:53;11.90;99.90
16964;DHT22;8598;50.508;10.436;2023-05-07T03:28:20;11.80;99.90
16964;DHT22;8598;50.508;10.436;2023-05-07T03:30:46;11.80;99.90
16964;DHT22;8598;50.508;10.436;2023-05-07T03:33:13;11.80;99.90
16964;DHT22;8598;50.508;10.436;2023-05-07T03:35:39;11.70;99.90
16964;DHT22;8598;50.508;10.436;2023-05-07T03:38:07;11.80;99.90
16964;DHT22;8598;50.508;10.436;2023-05-07T03:40:35;11.80;99.90
16964;DHT22;8598;50.508;10.436;2023-05-07T03:43:02;11.80;99.90
16964;DHT22;8598;50.508;10.436;2023-05-07T03:45:28;11.70;99.90
16964;DHT22;8598;50.508;10.436;2023-05-07T03:47:55;11.70;99.90
16964;DHT22;8598;50.508;10.436;2023-05-07T03:50:22;11.70;99.90
16964;DHT22;8598;50.508;10.436;2023-05-07T03:52:48;11.60;99.90
16964;DHT22;8598;50.508;10.436;2023-05-07T03:55:15;11.70;99.90
16964;DHT22;8598;50.508;10.436;2023-05-07T03:57:43;11.60;99.90
16964;DHT22;8598;50.508;10.436;2023-05-07T04:00:11;11.60;99.90
16964;DHT22;8598;50.508;10.436;2023-05-07T04:02:37;11.60;99.90
16964;DHT22;8598;50.508;10.436;2023-05-07T04:05:04;11.60;99.90
16964;DHT22;8598;50.508;10.436;2023-05-07T04:07:31;11.60;99.90
16964;DHT22;8598;50.508;10.436;2023-05-07T04:09:58;11.70;99.90
16964;DHT22;8598;50.508;10.436;2023-05-07T04:12:24;11.60;99.90
16964;DHT22;8598;50.508;10.436;2023-05-07T04:14:52;11.60;99.90
16964;DHT22;8598;50.508;10.436;2023-05-07T04:17:19;11.60;99.90
16964;DHT22;8598;50.508;10.436;2023-05-07T04:19:45;11.60;99.90
16964;DHT22;8598;50.508;10.436;2023-05-07T04:22:12;11.60;99.90
16964;DHT22;8598;50.508;10.436;2023-05-07T04:24:38;11.70;99.90
16964;DHT22;8598;50.508;10.436;2023-05-07T04:27:05;11.70;99.90
16964;DHT22;8598;50.508;10.436;2023-05-07T04:29:32;11.80;99.90
16964;DHT22;8598;50.508;10.436;2023-05-07T04:32:00;11.80;99.90
16964;DHT22;8598;50.508;10.436;2023-05-07T04:34:27;11.90;99.90
16964;DHT22;8598;50.508;10.436;2023-05-07T04:36:53;11.90;99.90
16964;DHT22;8598;50.508;10.436;2023-05-07T04:39:20;12.00;99.90
16964;DHT22;8598;50.508;10.436;2023-05-07T04:41:46;12.00;99.90
16964;DHT22;8598;50.508;10.436;2023-05-07T04:44:13;12.10;99.90
16964;DHT22;8598;50.508;10.436;2023-05-07T04:46:40;12.20;99.90
16964;DHT22;8598;50.508;10.436;2023-05-07T04:49:07;12.20;99.90
16964;DHT22;8598;50.508;10.436;2023-05-07T04:51:34;12.30;99.90
16964;DHT22;8598;50.508;10.436;2023-05-07T04:54:01;12.40;99.90
16964;DHT22;8598;50.508;10.436;2023-05-07T04:56:28;12.50;99.90
16964;DHT22;8598;50.508;10.436;2023-05-07T04:58:55;12.50;99.90
16964;DHT22;8598;50.508;10.436;2023-05-07T05:01:21;12.60;99.90
16964;DHT22;8598;50.508;10.436;2023-05-07T05:03:48;12.60;99.90
16964;DHT22;8598;50.508;10.436;2023-05-07T05:06:16;12.60;99.90
16964;DHT22;8598;50.508;10.436;2023-05-07T05:08:43;12.70;99.90
16964;DHT22;8598;50.508;10.436;2023-05-07T05:11:09;12.80;99.90
16964;DHT22;8598;50.508;10.436;2023-05-07T05:13:36;12.80;99.90
16964;DHT22;8598;50.508;10.436;2023-05-07T05:16:03;12.90;99.90
16964;DHT22;8598;50.508;10.436;2023-05-07T05:18:29;13.10;99.90
16964;DHT22;8598;50.508;10.436;2023-05-07T05:20:56;13.00;99.90
16964;DHT22;8598;50.508;10.436;2023-05-07T05:23:24;13.00;99.90
16964;DHT22;8598;50.508;10.436;2023-05-07T05:25:55;13.10;99.90
16964;DHT22;8598;50.508;10.436;2023-05-07T05:28:22;13.10;99.90
16964;DHT22;8598;50.508;10.436;2023-05-07T05:30:48;13.10;99.90
16964;DHT22;8598;50.508;10.436;2023-05-07T05:33:15;13.20;99.90
16964;DHT22;8598;50.508;10.436;2023-05-07T05:35:42;13.30;99.90
16964;DHT22;8598;50.508;10.436;2023-05-07T05:38:08;13.30;99.90
16964;DHT22;8598;50.508;10.436;2023-05-07T05:40:36;13.30;99.90
16964;DHT22;8598;50.508;10.436;2023-05-07T05:43:03;13.50;99.90
16964;DHT22;8598;50.508;10.436;2023-05-07T05:45:30;13.60;99.90
16964;DHT22;8598;50.508;10.436;2023-05-07T05:47:56;13.60;99.90
16964;DHT22;8598;50.508;10.436;2023-05-07T05:50:23;13.70;99.90
16964;DHT22;8598;50.508;10.436;2023-05-07T05:52:50;13.90;99.90
16964;DHT22;8598;50.508;10.436;2023-05-07T05:55:16;13.90;99.90
16964;DHT22;8598;50.508;10.436;2023-05-07T05:57:44;14.00;99.90
16964;DHT22;8598;50.508;10.436;2023-05-07T06:00:12;14.10;99.90
16964;DHT22;8598;50.508;10.436;2023-05-07T06:02:39;14.10;99.90
16964;DHT22;8598;50.508;10.436;2023-05-07T06:05:06;14.20;99.90
16964;DHT22;8598;50.508;10.436;2023-05-07T06:07:33;14.20;99.90
16964;DHT22;8598;50.508;10.436;2023-05-07T06:10:00;14.30;99.90
16964;DHT22;8598;50.508;10.436;2023-05-07T06:12:26;14.50;99.90
16964;DHT22;8598;50.508;10.436;2023-05-07T06:14:54;14.70;99.90
16964;DHT22;8598;50.508;10.436;2023-05-07T06:17:21;14.80;99.90
16964;DHT22;8598;50.508;10.436;2023-05-07T06:19:47;15.10;99.90
16964;DHT22;8598;50.508;10.436;2023-05-07T06:22:14;15.30;99.90
16964;DHT22;8598;50.508;10.436;2023-05-07T06:24:41;15.20;99.90
16964;DHT22;8598;50.508;10.436;2023-05-07T06:27:07;15.10;99.90
16964;DHT22;8598;50.508;10.436;2023-05-07T06:29:34;15.30;99.90
16964;DHT22;8598;50.508;10.436;2023-05-07T06:32:07;15.20;99.90
16964;DHT22;8598;50.508;10.436;2023-05-07T06:34:35;15.40;99.90
16964;DHT22;8598;50.508;10.436;2023-05-07T06:37:02;15.60;99.90
16964;DHT22;8598;50.508;10.436;2023-05-07T06:39:28;15.50;99.90
16964;DHT22;8598;50.508;10.436;2023-05-07T06:41:55;15.50;99.90
16964;DHT22;8598;50.508;10.436;2023-05-07T06:44:22;15.60;99.90
16964;DHT22;8598;50.508;10.436;2023-05-07T06:46:48;15.80;99.90
16964;DHT22;8598;50.508;10.436;2023-05-07T06:49:16;15.70;99.90
16964;DHT22;8598;50.508;10.436;2023-05-07T06:51:43;15.80;99.90
16964;DHT22;8598;50.508;10.436;2023-05-07T06:54:10;15.90;99.90
16964;DHT22;8598;50.508;10.436;2023-05-07T06:56:36;15.80;99.90
16964;DHT22;8598;50.508;10.436;2023-05-07T06:59:03;16.00;99.90
16964;DHT22;8598;50.508;10.436;2023-05-07T07:01:30;16.10;99.90
16964;DHT22;8598;50.508;10.436;2023-05-07T07:03:56;16.20;99.90
16964;DHT22;8598;50.508;10.436;2023-05-07T07:06:24;16.30;99.90
16964;DHT22;8598;50.508;10.436;2023-05-07T07:08:51;16.60;99.90
16964;DHT22;8598;50.508;10.436;2023-05-07T07:11:17;16.80;99.90
16964;DHT22;8598;50.508;10.436;2023-05-07T07:13:44;16.80;99.90
16964;DHT22;8598;50.508;10.436;2023-05-07T07:16:10;17.10;99.90
16964;DHT22;8598;50.508;10.436;2023-05-07T07:18:37;17.00;99.90
16964;DHT22;8598;50.508;10.436;2023-05-07T07:21:04;17.10;99.90
16964;DHT22;8598;50.508;10.436;2023-05-07T07:23:32;17.00;99.90
16964;DHT22;8598;50.508;10.436;2023-05-07T07:25:59;17.20;99.90
16964;DHT22;8598;50.508;10.436;2023-05-07T07:28:25;17.10;99.90
16964;DHT22;8598;50.508;10.436;2023-05-07T07:30:52;17.20;99.90
16964;DHT22;8598;50.508;10.436;2023-05-07T07:33:19;17.30;99.90
16964;DHT22;8598;50.508;10.436;2023-05-07T07:35:45;17.60;99.90
16964;DHT22;8598;50.508;10.436;2023-05-07T07:38:12;18.00;99.90
16964;DHT22;8598;50.508;10.436;2023-05-07T07:40:40;18.50;99.90
16964;DHT22;8598;50.508;10.436;2023-05-07T07:43:06;18.70;99.90
16964;DHT22;8598;50.508;10.436;2023-05-07T07:45:33;19.00;99.90
16964;DHT22;8598;50.508;10.436;2023-05-07T07:48:00;19.00;99.90
16964;DHT22;8598;50.508;10.436;2023-05-07T07:50:27;18.90;99.90
16964;DHT22;8598;50.508;10.436;2023-05-07T07:52:53;19.20;99.90
16964;DHT22;8598;50.508;10.436;2023-05-07T07:55:20;19.40;99.90
16964;DHT22;8598;50.508;10.436;2023-05-07T07:57:49;19.20;99.90
16964;DHT22;8598;50.508;10.436;2023-05-07T08:00:16;19.30;99.90
16964;DHT22;8598;50.508;10.436;2023-05-07T08:02:43;19.30;99.90
16964;DHT22;8598;50.508;10.436;2023-05-07T08:05:10;19.00;99.90
16964;DHT22;8598;50.508;10.436;2023-05-07T08:07:36;19.50;99.90
16964;DHT22;8598;50.508;10.436;2023-05-07T08:10:03;20.10;99.90
16964;DHT22;8598;50.508;10.436;2023-05-07T08:12:30;20.60;99.90
16964;DHT22;8598;50.508;10.436;2023-05-07T08:14:58;20.90;99.90
16964;DHT22;8598;50.508;10.436;2023-05-07T08:17:25;21.50;99.90
16964;DHT22;8598;50.508;10.436;2023-05-07T08:19:51;21.20;99.90
16964;DHT22;8598;50.508;10.436;2023-05-07T08:22:18;20.90;99.90
16964;DHT22;8598;50.508;10.436;2023-05-07T08:24:44;20.70;99.90
16964;DHT22;8598;50.508;10.436;2023-05-07T08:27:11;20.60;99.90
16964;DHT22;8598;50.508;10.436;2023-05-07T08:29:38;20.40;99.90
16964;DHT22;8598;50.508;10.436;2023-05-07T08:32:06;20.70;99.90
16964;DHT22;8598;50.508;10.436;2023-05-07T08:34:32;20.80;99.90
16964;DHT22;8598;50.508;10.436;2023-05-07T08:36:59;20.50;99.90
16964;DHT22;8598;50.508;10.436;2023-05-07T08:39:25;20.60;99.90
16964;DHT22;8598;50.508;10.436;2023-05-07T08:41:55;20.30;99.90
16964;DHT22;8598;50.508;10.436;2023-05-07T08:44:26;20.00;99.90
16964;DHT22;8598;50.508;10.436;2023-05-07T08:46:56;20.20;99.90
16964;DHT22;8598;50.508;10.436;2023-05-07T08:49:24;20.40;99.90
16964;DHT22;8598;50.508;10.436;2023-05-07T08:51:51;20.90;99.90
16964;DHT22;8598;50.508;10.436;2023-05-07T08:54:18;20.90;99.90
16964;DHT22;8598;50.508;10.436;2023-05-07T08:56:46;21.20;99.90
16964;DHT22;8598;50.508;10.436;2023-05-07T08:59:13;21.80;99.90
16964;DHT22;8598;50.508;10.436;2023-05-07T09:01:40;21.40;99.90
16964;DHT22;8598;50.508;10.436;2023-05-07T09:04:06;21.90;99.90
16964;DHT22;8598;50.508;10.436;2023-05-07T09:06:35;21.70;99.90
16964;DHT22;8598;50.508;10.436;2023-05-07T09:09:03;21.60;99.90
16964;DHT22;8598;50.508;10.436;2023-05-07T09:11:30;21.60;99.90
16964;DHT22;8598;50.508;10.436;2023-05-07T09:13:57;21.80;99.90
16964;DHT22;8598;50.508;10.436;2023-05-07T09:16:27;21.80;99.90
16964;DHT22;8598;50.508;10.436;2023-05-07T09:18:54;22.00;99.90
16964;DHT22;8598;50.508;10.436;2023-05-07T09:21:21;21.80;99.90
16964;DHT22;8598;50.508;10.436;2023-05-07T09:23:50;21.50;99.90
16964;DHT22;8598;50.508;10.436;2023-05-07T09:26:17;21.20;99.90
16964;DHT22;8598;50.508;10.436;2023-05-07T09:28:44;21.10;99.90
16964;DHT22;8598;50.508;10.436;2023-05-07T09:31:11;21.40;99.90
16964;DHT22;8598;50.508;10.436;2023-05-07T09:33:39;21.20;99.90
16964;DHT22;8598;50.508;10.436;2023-05-07T09:36:07;21.10;99.90
16964;DHT22;8598;50.508;10.436;2023-05-07T09:38:36;20.90;99.90
16964;DHT22;8598;50.508;10.436;2023-05-07T09:41:05;21.30;99.90
16964;DHT22;8598;50.508;10.436;2023-05-07T09:43:33;21.30;99.90
16964;DHT22;8598;50.508;10.436;2023-05-07T09:46:02;21.40;99.90
16964;DHT22;8598;50.508;10.436;2023-05-07T09:48:30;21.70;99.90
16964;DHT22;8598;50.508;10.436;2023-05-07T09:51:02;22.10;99.90
16964;DHT22;8598;50.508;10.436;2023-05-07T09:53:29;21.70;99.90
16964;DHT22;8598;50.508;10.436;2023-05-07T09:55:57;21.90;99.90
16964;DHT22;8598;50.508;10.436;2023-05-07T09:58:26;21.90;99.90
16964;DHT22;8598;50.508;10.436;2023-05-07T10:00:54;22.00;99.90
16964;DHT22;8598;50.508;10.436;2023-05-07T10:03:22;21.60;99.90
16964;DHT22;8598;50.508;10.436;2023-05-07T10:05:51;21.90;99.90
16964;DHT22;8598;50.508;10.436;2023-05-07T10:08:19;21.90;99.90
16964;DHT22;8598;50.508;10.436;2023-05-07T10:10:47;21.80;99.90
16964;DHT22;8598;50.508;10.436;2023-05-07T10:13:13;21.60;99.90
16964;DHT22;8598;50.508;10.436;2023-05-07T10:15:41;21.60;99.90
16964;DHT22;8598;50.508;10.436;2023-05-07T10:18:09;21.50;99.90
16964;DHT22;8598;50.508;10.436;2023-05-07T10:20:36;21.60;99.90
16964;DHT22;8598;50.508;10.436;2023-05-07T10:23:04;21.40;99.90
16964;DHT22;8598;50.508;10.436;2023-05-07T10:25:32;21.00;99.90
16964;DHT22;8598;50.508;10.436;2023-05-07T10:28:01;21.50;99.90
16964;DHT22;8598;50.508;10.436;2023-05-07T10:30:34;21.50;99.90
16964;DHT22;8598;50.508;10.436;2023-05-07T10:33:08;21.60;99.90
16964;DHT22;8598;50.508;10.436;2023-05-07T10:35:39;21.40;99.90
16964;DHT22;8598;50.508;10.436;2023-05-07T10:38:07;21.60;99.90
16964;DHT22;8598;50.508;10.436;2023-05-07T10:40:35;21.50;99.90
16964;DHT22;8598;50.508;10.436;2023-05-07T10:43:02;21.50;99.90
16964;DHT22;8598;50.508;10.436;2023-05-07T10:45:30;21.70;99.90
16964;DHT22;8598;50.508;10.436;2023-05-07T10:48:09;21.80;99.90
16964;DHT22;8598;50.508;10.436;2023-05-07T10:50:36;21.90;99.90
16964;DHT22;8598;50.508;10.436;2023-05-07T10:53:24;22.00;99.90
16964;DHT22;8598;50.508;10.436;2023-05-07T10:56:23;22.00;99.90
16964;DHT22;8598;50.508;10.436;2023-05-07T10:58:50;22.00;99.90
16964;DHT22;8598;50.508;10.436;2023-05-07T11:01:49;21.70;99.90
16964;DHT22;8598;50.508;10.436;2023-05-07T11:04:18;21.50;99.90
16964;DHT22;8598;50.508;10.436;2023-05-07T11:07:23;21.60;99.90
16964;DHT22;8598;50.508;10.436;2023-05-07T11:09:57;21.40;99.90
16964;DHT22;8598;50.508;10.436;2023-05-07T11:12:51;21.50;99.90
16964;DHT22;8598;50.508;10.436;2023-05-07T11:15:37;21.50;99.90
16964;DHT22;8598;50.508;10.436;2023-05-07T11:18:04;21.50;99.90
16964;DHT22;8598;50.508;10.436;2023-05-07T11:20:57;21.40;99.90
16964;DHT22;8598;50.508;10.436;2023-05-07T11:23:56;21.30;99.90
16964;DHT22;8598;50.508;10.436;2023-05-07T11:26:27;21.50;99.90
16964;DHT22;8598;50.508;10.436;2023-05-07T11:28:53;21.60;99.90
16964;DHT22;8598;50.508;10.436;2023-05-07T11:31:21;22.20;99.90
16964;DHT22;8598;50.508;10.436;2023-05-07T11:33:49;22.40;99.90
16964;DHT22;8598;50.508;10.436;2023-05-07T11:36:18;22.40;99.90
16964;DHT22;8598;50.508;10.436;2023-05-07T11:38:46;22.20;99.90
16964;DHT22;8598;50.508;10.436;2023-05-07T11:41:12;22.20;99.90
16964;DHT22;8598;50.508;10.436;2023-05-07T11:43:54;22.50;99.90
16964;DHT22;8598;50.508;10.436;2023-05-07T11:46:21;22.80;99.90
16964;DHT22;8598;50.508;10.436;2023-05-07T11:48:48;22.60;99.90
16964;DHT22;8598;50.508;10.436;2023-05-07T11:51:20;22.30;99.90
16964;DHT22;8598;50.508;10.436;2023-05-07T11:53:47;22.50;99.90
16964;DHT22;8598;50.508;10.436;2023-05-07T11:56:15;22.50;99.90
16964;DHT22;8598;50.508;10.436;2023-05-07T11:58:43;22.30;99.90
16964;DHT22;8598;50.508;10.436;2023-05-07T12:01:11;22.40;99.90
16964;DHT22;8598;50.508;10.436;2023-05-07T12:03:39;22.40;99.90
16964;DHT22;8598;50.508;10.436;2023-05-07T12:06:07;22.50;99.90
16964;DHT22;8598;50.508;10.436;2023-05-07T12:08:38;22.50;99.90
16964;DHT22;8598;50.508;10.436;2023-05-07T12:11:07;22.20;99.90
16964;DHT22;8598;50.508;10.436;2023-05-07T12:13:35;22.20;99.90
16964;DHT22;8598;50.508;10.436;2023-05-07T12:16:02;22.30;99.90
16964;DHT22;8598;50.508;10.436;2023-05-07T12:18:29;22.50;99.90
16964;DHT22;8598;50.508;10.436;2023-05-07T12:20:56;22.70;99.90
16964;DHT22;8598;50.508;10.436;2023-05-07T12:23:23;23.10;99.90
16964;DHT22;8598;50.508;10.436;2023-05-07T12:25:51;23.20;99.90
16964;DHT22;8598;50.508;10.436;2023-05-07T12:28:19;23.30;99.90
16964;DHT22;8598;50.508;10.436;2023-05-07T12:30:47;23.00;99.90
16964;DHT22;8598;50.508;10.436;2023-05-07T12:33:16;23.10;99.90
16964;DHT22;8598;50.508;10.436;2023-05-07T12:35:43;23.20;99.90
16964;DHT22;8598;50.508;10.436;2023-05-07T12:38:12;23.10;99.90
16964;DHT22;8598;50.508;10.436;2023-05-07T12:40:40;22.90;99.90
16964;DHT22;8598;50.508;10.436;2023-05-07T12:43:15;22.50;99.90
16964;DHT22;8598;50.508;10.436;2023-05-07T12:45:42;22.20;99.90
16964;DHT22;8598;50.508;10.436;2023-05-07T12:48:09;22.30;99.90
16964;DHT22;8598;50.508;10.436;2023-05-07T12:50:36;22.50;99.90
16964;DHT22;8598;50.508;10.436;2023-05-07T12:53:03;22.80;99.90
16964;DHT22;8598;50.508;10.436;2023-05-07T12:55:31;23.20;99.90
16964;DHT22;8598;50.508;10.436;2023-05-07T12:58:00;23.40;99.90
16964;DHT22;8598;50.508;10.436;2023-05-07T13:00:36;23.40;99.90
16964;DHT22;8598;50.508;10.436;2023-05-07T13:03:03;23.20;99.90
16964;DHT22;8598;50.508;10.436;2023-05-07T13:05:31;23.30;99.90
16964;DHT22;8598;50.508;10.436;2023-05-07T13:07:58;23.80;99.90
16964;DHT22;8598;50.508;10.436;2023-05-07T13:10:26;23.80;99.90
16964;DHT22;8598;50.508;10.436;2023-05-07T13:12:53;23.00;99.90
16964;DHT22;8598;50.508;10.436;2023-05-07T13:15:20;22.90;99.90
16964;DHT22;8598;50.508;10.436;2023-05-07T13:17:48;22.90;99.90
16964;DHT22;8598;50.508;10.436;2023-05-07T13:20:15;22.50;99.90
16964;DHT22;8598;50.508;10.436;2023-05-07T13:22:42;22.20;99.90
16964;DHT22;8598;50.508;10.436;2023-05-07T13:25:09;22.00;99.90
16964;DHT22;8598;50.508;10.436;2023-05-07T13:27:35;22.00;99.90
16964;DHT22;8598;50.508;10.436;2023-05-07T13:30:03;21.90;99.90
16964;DHT22;8598;50.508;10.436;2023-05-07T13:32:30;21.70;99.90
16964;DHT22;8598;50.508;10.436;2023-05-07T13:34:59;21.60;99.90
16964;DHT22;8598;50.508;10.436;2023-05-07T13:37:25;21.90;99.90
16964;DHT22;8598;50.508;10.436;2023-05-07T13:39:52;22.30;99.90
16964;DHT22;8598;50.508;10.436;2023-05-07T13:42:18;23.00;99.90
16964;DHT22;8598;50.508;10.436;2023-05-07T13:44:45;23.00;99.90
16964;DHT22;8598;50.508;10.436;2023-05-07T13:47:12;23.20;99.90
16964;DHT22;8598;50.508;10.436;2023-05-07T13:49:39;23.50;99.90
16964;DHT22;8598;50.508;10.436;2023-05-07T13:52:07;23.40;99.90
16964;DHT22;8598;50.508;10.436;2023-05-07T13:54:34;23.00;99.90
16964;DHT22;8598;50.508;10.436;2023-05-07T13:57:00;22.50;99.90
16964;DHT22;8598;50.508;10.436;2023-05-07T13:59:27;22.70;99.90
16964;DHT22;8598;50.508;10.436;2023-05-07T14:01:53;22.70;99.90
16964;DHT22;8598;50.508;10.436;2023-05-07T14:04:21;22.60;99.90
16964;DHT22;8598;50.508;10.436;2023-05-07T14:06:47;22.70;99.90
16964;DHT22;8598;50.508;10.436;2023-05-07T14:09:15;22.30;99.90
16964;DHT22;8598;50.508;10.436;2023-05-07T14:11:42;22.10;99.90
16964;DHT22;8598;50.508;10.436;2023-05-07T14:14:08;21.80;99.90
16964;DHT22;8598;50.508;10.436;2023-05-07T14:16:37;21.70;99.90
16964;DHT22;8598;50.508;10.436;2023-05-07T14:19:03;21.40;99.90
16964;DHT22;8598;50.508;10.436;2023-05-07T14:21:30;21.20;99.90
16964;DHT22;8598;50.508;10.436;2023-05-07T14:23:57;21.30;99.90
16964;DHT22;8598;50.508;10.436;2023-05-07T14:26:26;21.50;99.90
16964;DHT22;8598;50.508;10.436;2023-05-07T14:28:53;21.50;99.90
16964;DHT22;8598;50.508;10.436;2023-05-07T14:31:22;21.80;99.90
16964;DHT22;8598;50.508;10.436;2023-05-07T14:33:49;22.00;99.90
16964;DHT22;8598;50.508;10.436;2023-05-07T14:36:16;22.10;99.90
16964;DHT22;8598;50.508;10.436;2023-05-07T14:38:42;22.00;99.90
16964;DHT22;8598;50.508;10.436;2023-05-07T14:41:09;22.00;99.90
16964;DHT22;8598;50.508;10.436;2023-05-07T14:43:37;21.50;99.90
16964;DHT22;8598;50.508;10.436;2023-05-07T14:46:04;21.20;99.90
16964;DHT22;8598;50.508;10.436;2023-05-07T14:48:30;20.80;99.90
16964;DHT22;8598;50.508;10.436;2023-05-07T14:50:57;20.50;99.90
16964;DHT22;8598;50.508;10.436;2023-05-07T14:53:24;20.50;99.90
16964;DHT22;8598;50.508;10.436;2023-05-07T14:55:51;20.60;99.90
16964;DHT22;8598;50.508;10.436;2023-05-07T14:58:17;20.80;99.90
16964;DHT22;8598;50.508;10.436;2023-05-07T15:00:45;20.50;99.90
16964;DHT22;8598;50.508;10.436;2023-05-07T15:03:12;20.40;99.90
16964;DHT22;8598;50.508;10.436;2023-05-07T15:05:39;20.30;99.90
16964;DHT22;8598;50.508;10.436;2023-05-07T15:08:06;20.50;99.90
16964;DHT22;8598;50.508;10.436;2023-05-07T15:10:35;20.30;99.90
16964;DHT22;8598;50.508;10.436;2023-05-07T15:13:06;20.40;99.90
16964;DHT22;8598;50.508;10.436;2023-05-07T15:15:33;20.60;99.90
16964;DHT22;8598;50.508;10.436;2023-05-07T15:18:01;20.30;99.90
16964;DHT22;8598;50.508;10.436;2023-05-07T15:20:27;20.20;99.90
16964;DHT22;8598;50.508;10.436;2023-05-07T15:22:54;20.30;99.90
16964;DHT22;8598;50.508;10.436;2023-05-07T15:25:21;20.40;99.90
16964;DHT22;8598;50.508;10.436;2023-05-07T15:27:48;20.40;99.90
16964;DHT22;8598;50.508;10.436;2023-05-07T15:30:14;20.40;99.90
16964;DHT22;8598;50.508;10.436;2023-05-07T15:32:41;20.30;99.90
16964;DHT22;8598;50.508;10.436;2023-05-07T15:35:09;20.10;99.90